Time;durP1;ratioP1;P1;durP2;ratioP2;P2;SDS_P1;SDS_P2;PMS_P1;PMS_P2;Temp;Humidity;BMP_temperature;BMP_pressure;BME280_temperature;BME280_humidity;BME280_pressure;Samples;Min_cycle;Max_cycle;Signal;HPM_P1;HPM_P2
2022/04/08 00:00:59;;;;;;;5.95;2.80;;;-1.80;99.90;;;;;;4973724;28;20446;-66
2022/04/08 00:03:28;;;;;;;4.50;2.70;;;-1.80;99.90;;;;;;4973959;28;20054;-66
2022/04/08 00:05:54;;;;;;;6.00;3.35;;;-1.80;99.90;;;;;;4973550;28;20031;-66
2022/04/08 00:08:21;;;;;;;5.97;3.50;;;-1.80;99.90;;;;;;4973941;28;20031;-66
2022/04/08 00:10:47;;;;;;;3.60;3.22;;;-1.70;99.90;;;;;;4973979;28;20030;-66
2022/04/08 00:13:13;;;;;;;4.00;3.28;;;-1.80;99.90;;;;;;4973563;28;20033;-66
2022/04/08 00:15:39;;;;;;;7.97;3.22;;;-1.80;99.90;;;;;;4973482;28;20177;-67
2022/04/08 00:18:06;;;;;;;6.45;3.28;;;-1.80;99.90;;;;;;4973295;28;20027;-66
2022/04/08 00:20:33;;;;;;;3.78;2.97;;;-1.80;99.90;;;;;;4965455;28;20042;-66
2022/04/08 00:22:59;;;;;;;6.85;3.20;;;-1.70;99.90;;;;;;4953949;28;20086;-66
2022/04/08 00:25:25;;;;;;;10.02;3.30;;;-1.80;99.90;;;;;;4954061;29;20039;-67
2022/04/08 00:27:51;;;;;;;3.75;3.30;;;-1.80;99.90;;;;;;4952670;29;20026;-67
2022/04/08 00:30:17;;;;;;;4.43;3.03;;;-1.80;99.90;;;;;;4954432;28;20125;-67
2022/04/08 00:32:43;;;;;;;4.20;3.17;;;-1.80;99.90;;;;;;4954189;28;20086;-67
2022/04/08 00:35:09;;;;;;;4.18;2.95;;;-1.80;99.90;;;;;;4954223;29;20039;-67
2022/04/08 00:37:35;;;;;;;5.63;3.20;;;-1.80;99.90;;;;;;4953731;28;20047;-67
2022/04/08 00:40:38;;;;;;;3.65;2.63;;;-1.80;99.90;;;;;;4953882;28;20066;-67
2022/04/08 00:43:14;;;;;;;4.28;3.40;;;-1.80;99.90;;;;;;4953620;29;20034;-67
2022/04/08 00:45:40;;;;;;;8.18;3.10;;;-1.80;99.90;;;;;;4954116;28;20043;-67
2022/04/08 00:48:07;;;;;;;5.25;3.10;;;-1.80;99.90;;;;;;4953697;28;20027;-67
2022/04/08 00:50:44;;;;;;;5.20;3.15;;;-1.80;99.90;;;;;;4953828;28;20491;-67
2022/04/08 00:53:10;;;;;;;5.25;3.42;;;-1.90;99.90;;;;;;4953618;28;20043;-67
2022/04/08 00:55:38;;;;;;;4.47;2.92;;;-1.90;99.90;;;;;;4954009;28;20035;-67
2022/04/08 00:58:05;;;;;;;4.90;3.33;;;-1.90;99.90;;;;;;4953648;28;20387;-67
2022/04/08 01:00:34;;;;;;;3.85;2.78;;;-1.90;99.90;;;;;;4954107;28;20027;-66
2022/04/08 01:02:59;;;;;;;4.88;2.67;;;-1.80;99.90;;;;;;4953683;28;20042;-67
2022/04/08 01:05:26;;;;;;;4.65;2.60;;;-1.80;99.90;;;;;;4953772;29;20414;-67
2022/04/08 01:07:53;;;;;;;5.35;2.60;;;-1.80;99.90;;;;;;4953663;28;20498;-67
2022/04/08 01:10:19;;;;;;;2.70;2.13;;;-1.80;99.90;;;;;;4953840;28;20127;-67
2022/04/08 01:12:45;;;;;;;3.95;2.45;;;-1.70;99.90;;;;;;4953975;28;20031;-67
2022/04/08 01:15:10;;;;;;;2.97;2.33;;;-1.80;99.90;;;;;;4953605;28;20046;-66
2022/04/08 01:17:36;;;;;;;2.63;1.98;;;-1.80;99.90;;;;;;4953632;29;20027;-67
2022/04/08 01:20:03;;;;;;;3.13;2.45;;;-1.80;99.90;;;;;;4953781;28;20066;-66
2022/04/08 01:22:29;;;;;;;2.70;2.40;;;-1.80;99.90;;;;;;4953521;28;20495;-68
2022/04/08 01:25:03;;;;;;;3.55;2.35;;;-1.80;99.90;;;;;;4953256;28;20407;-68
2022/04/08 01:27:29;;;;;;;2.22;1.80;;;-1.80;99.90;;;;;;4953825;28;20027;-67
2022/04/08 01:29:56;;;;;;;2.03;1.83;;;-1.70;99.90;;;;;;4953751;28;20174;-66
2022/04/08 01:32:22;;;;;;;2.05;1.90;;;-1.80;99.90;;;;;;4954875;28;20035;-66
2022/04/08 01:34:53;;;;;;;3.20;2.35;;;-1.80;99.90;;;;;;4957158;29;20491;-66
2022/04/08 01:37:19;;;;;;;2.30;2.03;;;-1.80;99.90;;;;;;4956988;28;20407;-67
2022/04/08 01:39:45;;;;;;;2.50;2.03;;;-1.80;99.90;;;;;;4957156;28;20046;-67
2022/04/08 01:42:11;;;;;;;2.58;2.17;;;-1.80;99.90;;;;;;4956909;28;20027;-67
2022/04/08 01:44:37;;;;;;;2.10;1.80;;;-1.80;99.90;;;;;;4956921;29;20118;-67
2022/04/08 01:47:03;;;;;;;2.25;1.90;;;-1.80;99.90;;;;;;4956777;28;20034;-67
2022/04/08 01:49:29;;;;;;;3.83;1.98;;;-1.80;99.90;;;;;;4956925;28;20038;-67
2022/04/08 01:51:56;;;;;;;3.63;2.05;;;-1.80;99.90;;;;;;4956636;28;20027;-66
2022/04/08 01:54:21;;;;;;;3.17;2.03;;;-1.80;99.90;;;;;;4956707;28;20092;-66
2022/04/08 01:56:47;;;;;;;6.95;2.13;;;-1.80;99.90;;;;;;4957065;29;20043;-68
2022/04/08 01:59:13;;;;;;;2.30;2.10;;;-1.80;99.90;;;;;;4956880;28;20035;-68
2022/04/08 02:01:39;;;;;;;2.35;1.80;;;-1.80;99.90;;;;;;4955369;29;20565;-67
2022/04/08 02:04:05;;;;;;;3.22;2.22;;;-1.80;99.90;;;;;;4956707;28;20159;-67
2022/04/08 02:06:31;;;;;;;2.63;2.05;;;-1.80;99.90;;;;;;4956573;28;20031;-68
2022/04/08 02:08:58;;;;;;;2.47;1.80;;;-1.80;99.90;;;;;;4956744;28;20032;-67
2022/04/08 02:11:24;;;;;;;3.67;2.20;;;-1.80;99.90;;;;;;4956666;28;20039;-67
2022/04/08 02:13:50;;;;;;;4.55;2.15;;;-1.80;99.90;;;;;;4956431;29;20047;-67
2022/04/08 02:16:16;;;;;;;2.13;1.83;;;-1.80;99.90;;;;;;4956550;29;20032;-68
2022/04/08 02:18:42;;;;;;;7.65;1.95;;;-1.80;99.90;;;;;;4956623;28;20093;-67
2022/04/08 02:21:09;;;;;;;2.85;2.03;;;-1.90;99.90;;;;;;4956463;28;20108;-67
2022/04/08 02:23:36;;;;;;;3.97;2.00;;;-1.80;99.90;;;;;;4956283;28;20031;-68
2022/04/08 02:55:06;;;;;;;2.92;1.42;;;-2.10;99.90;;;;;;4955043;29;20058;-66
2022/04/08 02:57:36;;;;;;;3.88;1.88;;;-2.10;99.90;;;;;;4955943;28;20059;-68
2022/04/08 03:00:02;;;;;;;1.60;1.50;;;-2.10;99.90;;;;;;4955473;28;20032;-68
2022/04/08 03:02:28;;;;;;;1.60;1.50;;;-2.10;99.90;;;;;;4971683;28;20262;-71
2022/04/08 03:38:34;;;;;;;2.88;1.08;;;-2.00;99.90;;;;;;5020600;23;20048;-67
2022/04/08 03:41:00;;;;;;;2.25;1.25;;;-1.90;99.90;;;;;;4954684;29;20027;-64
2022/04/08 03:43:27;;;;;;;2.20;0.95;;;-1.90;99.90;;;;;;4954802;29;20094;-64
2022/04/08 03:45:53;;;;;;;4.63;1.08;;;-1.80;99.90;;;;;;4954594;29;20047;-65
2022/04/08 03:48:19;;;;;;;3.45;1.30;;;-1.90;99.90;;;;;;4954598;29;20030;-66
2022/04/08 03:50:44;;;;;;;1.50;1.40;;;-1.90;99.90;;;;;;4937323;29;20062;-66
2022/04/08 03:53:12;;;;;;;1.77;1.35;;;-2.00;99.90;;;;;;4954735;29;20031;-66
2022/04/08 03:55:38;;;;;;;2.00;1.33;;;-1.90;99.90;;;;;;4953950;28;20078;-68
2022/04/08 03:58:04;;;;;;;1.95;1.40;;;-1.90;99.90;;;;;;4954596;29;20106;-71
2022/04/08 04:00:30;;;;;;;1.58;1.48;;;-1.80;99.90;;;;;;4954606;29;20106;-65
2022/04/08 04:02:56;;;;;;;2.58;1.23;;;-1.90;99.90;;;;;;4954569;29;20019;-66
2022/04/08 04:05:21;;;;;;;3.67;1.23;;;-1.90;99.90;;;;;;4954598;29;20043;-65
2022/04/08 04:07:47;;;;;;;2.05;1.30;;;-1.80;99.90;;;;;;4954640;29;20027;-66
2022/04/08 04:10:14;;;;;;;2.10;1.45;;;-1.60;99.90;;;;;;4954239;29;20019;-63
2022/04/08 04:12:42;;;;;;;1.98;1.20;;;-1.70;99.90;;;;;;4954649;29;20035;-64
2022/04/08 04:15:08;;;;;;;1.85;1.35;;;-1.70;99.90;;;;;;4953917;29;20430;-65
2022/04/08 04:17:35;;;;;;;2.25;1.10;;;-1.70;99.90;;;;;;4966557;28;20474;-65
2022/04/08 04:20:01;;;;;;;3.40;1.27;;;-1.70;99.90;;;;;;4972615;28;20062;-64
2022/04/08 04:22:27;;;;;;;2.45;1.30;;;-1.70;99.90;;;;;;4972691;28;20030;-64
2022/04/08 04:24:53;;;;;;;2.65;1.40;;;-1.70;99.90;;;;;;4967692;28;20038;-64
2022/04/08 04:27:18;;;;;;;1.52;1.05;;;-1.70;99.90;;;;;;4971675;28;20110;-64
2022/04/08 04:29:44;;;;;;;0.90;0.90;;;-1.70;99.90;;;;;;4972796;28;20073;-64
2022/04/08 04:32:10;;;;;;;3.40;1.38;;;-1.70;99.90;;;;;;4972099;28;20035;-66
2022/04/08 04:34:38;;;;;;;1.92;1.30;;;-1.70;99.90;;;;;;4972542;28;20034;-66
2022/04/08 04:37:04;;;;;;;2.42;1.50;;;-1.70;99.90;;;;;;4972294;28;20156;-66
2022/04/08 04:39:30;;;;;;;1.77;1.52;;;-1.70;99.90;;;;;;4968845;28;20033;-66
2022/04/08 04:41:56;;;;;;;2.30;1.40;;;-1.70;99.90;;;;;;4969873;28;20031;-66
2022/04/08 04:44:22;;;;;;;1.58;1.20;;;-1.70;99.90;;;;;;4955014;28;20110;-67
2022/04/08 04:46:47;;;;;;;1.60;1.30;;;-1.70;99.90;;;;;;4968393;28;20031;-66
2022/04/08 04:49:13;;;;;;;1.33;1.20;;;-1.70;99.90;;;;;;4971894;28;20291;-69
2022/04/08 04:51:39;;;;;;;1.63;1.42;;;-1.70;99.90;;;;;;4973156;28;20027;-66
2022/04/08 04:54:05;;;;;;;3.08;1.38;;;-1.70;99.90;;;;;;4972796;28;20023;-68
2022/04/08 04:56:31;;;;;;;2.03;1.20;;;-1.70;99.90;;;;;;4972747;28;20031;-67
2022/04/08 04:58:56;;;;;;;1.00;1.00;;;-1.60;99.90;;;;;;4972518;28;20102;-67
2022/04/08 05:01:22;;;;;;;1.88;1.40;;;-1.60;99.90;;;;;;4972875;28;20546;-67
2022/04/08 05:03:48;;;;;;;2.47;1.05;;;-1.60;99.90;;;;;;4972962;28;20045;-67
2022/04/08 05:06:13;;;;;;;1.70;1.13;;;-1.60;99.90;;;;;;4973865;28;20038;-64
2022/04/08 05:08:39;;;;;;;1.35;1.20;;;-1.70;99.90;;;;;;4975687;28;20467;-66
2022/04/08 05:11:05;;;;;;;1.33;1.20;;;-1.70;99.90;;;;;;4977089;28;20058;-66
2022/04/08 05:13:32;;;;;;;2.85;1.05;;;-1.70;99.90;;;;;;4977008;28;20086;-67
2022/04/08 05:15:58;;;;;;;1.38;1.17;;;-1.70;99.90;;;;;;4976877;28;20037;-67
2022/04/08 05:18:24;;;;;;;1.30;1.20;;;-1.60;99.90;;;;;;4975182;28;20105;-71
2022/04/08 05:20:52;;;;;;;1.20;1.10;;;-1.20;99.90;;;;;;4976662;28;20035;-63
2022/04/08 05:23:21;;;;;;;2.35;1.10;;;-1.20;99.90;;;;;;4976309;28;20022;-64
2022/04/08 05:25:47;;;;;;;1.55;1.23;;;-1.40;99.90;;;;;;4976932;28;20089;-64
2022/04/08 05:28:12;;;;;;;2.08;1.15;;;-1.50;99.90;;;;;;4976429;28;20023;-63
2022/04/08 05:30:39;;;;;;;2.67;1.15;;;-1.50;99.90;;;;;;4976847;28;20030;-65
2022/04/08 05:33:05;;;;;;;1.90;1.40;;;-1.40;99.90;;;;;;4976374;28;20475;-66
2022/04/08 05:35:30;;;;;;;1.92;1.13;;;-1.50;99.90;;;;;;4976578;28;20165;-65
2022/04/08 05:37:56;;;;;;;4.10;1.40;;;0.20;99.90;;;;;;4976094;28;20042;-66
2022/04/08 05:40:21;;;;;;;1.95;1.20;;;0.00;99.90;;;;;;4976416;28;20126;-65
2022/04/08 05:42:48;;;;;;;3.90;1.17;;;-0.60;99.90;;;;;;4976412;28;20062;-66
2022/04/08 05:45:21;;;;;;;1.33;1.17;;;-0.90;99.90;;;;;;4974946;28;20034;-66
2022/04/08 05:47:50;;;;;;;4.07;1.92;;;-1.10;99.90;;;;;;4976289;28;20038;-66
2022/04/08 05:50:17;;;;;;;1.23;1.00;;;-1.20;99.90;;;;;;4976275;28;20054;-66
2022/04/08 05:52:44;;;;;;;1.38;1.10;;;-1.20;99.90;;;;;;4976451;28;20041;-65
2022/04/08 05:55:10;;;;;;;2.03;1.20;;;-1.30;99.90;;;;;;4976134;28;20038;-65
2022/04/08 05:57:40;;;;;;;2.30;1.30;;;-1.30;99.90;;;;;;4976219;28;20027;-65
2022/04/08 06:00:09;;;;;;;3.92;1.38;;;-1.40;99.90;;;;;;4976023;28;20074;-65
2022/04/08 06:02:34;;;;;;;4.22;1.55;;;-1.40;99.90;;;;;;4975913;28;20050;-68
2022/04/08 06:05:00;;;;;;;3.85;1.25;;;-1.30;99.90;;;;;;4976147;28;20031;-66
2022/04/08 06:07:26;;;;;;;1.40;1.10;;;-1.30;99.90;;;;;;4976396;28;20023;-66
2022/04/08 06:09:52;;;;;;;2.50;1.50;;;-1.40;99.90;;;;;;4975973;28;20023;-66
2022/04/08 06:12:18;;;;;;;1.40;1.30;;;-1.40;99.90;;;;;;4975908;28;20099;-66
2022/04/08 06:14:44;;;;;;;2.20;1.48;;;-1.40;99.90;;;;;;4975714;28;20051;-66
2022/04/08 06:17:09;;;;;;;4.07;1.35;;;-1.50;99.90;;;;;;4975790;28;20023;-66
2022/04/08 06:19:35;;;;;;;1.45;1.20;;;-1.50;99.90;;;;;;4975582;28;20038;-66
2022/04/08 06:22:01;;;;;;;7.03;1.50;;;-1.50;99.90;;;;;;4975699;28;20026;-66
2022/04/08 06:24:27;;;;;;;4.03;1.60;;;-1.60;99.90;;;;;;4975890;28;20104;-66
2022/04/08 06:26:52;;;;;;;1.90;1.27;;;-1.60;99.90;;;;;;4975822;28;20109;-66
2022/04/08 06:29:18;;;;;;;1.10;1.02;;;-1.60;99.90;;;;;;4975405;28;20059;-66
2022/04/08 06:31:44;;;;;;;2.05;1.30;;;-1.70;99.90;;;;;;4975533;28;20023;-66
2022/04/08 06:34:09;;;;;;;4.05;1.75;;;-1.70;99.90;;;;;;4975283;28;20019;-66
2022/04/08 06:36:35;;;;;;;1.90;1.50;;;-1.70;99.90;;;;;;4975169;28;20459;-66
2022/04/08 06:39:01;;;;;;;5.93;1.60;;;-1.70;99.90;;;;;;4975269;28;20098;-66
2022/04/08 06:41:26;;;;;;;3.22;1.35;;;-1.50;99.90;;;;;;4975367;28;20038;-66
2022/04/08 06:43:52;;;;;;;2.88;1.60;;;-1.30;99.90;;;;;;4969456;28;20027;-65
2022/04/08 06:46:19;;;;;;;1.90;1.42;;;-1.20;99.90;;;;;;4964925;28;20039;-64
2022/04/08 06:48:45;;;;;;;1.50;1.25;;;-1.40;99.90;;;;;;4974799;28;20105;-64
2022/04/08 06:51:11;;;;;;;3.75;1.50;;;-1.40;99.90;;;;;;4974562;28;20114;-64
2022/04/08 06:53:36;;;;;;;3.55;1.90;;;-1.50;99.90;;;;;;4973066;28;20031;-64
2022/04/08 06:56:03;;;;;;;3.95;1.63;;;-1.60;99.90;;;;;;4960026;28;20019;-65
2022/04/08 06:58:30;;;;;;;1.98;1.40;;;-1.60;99.90;;;;;;4965716;28;20033;-65
2022/04/08 07:00:57;;;;;;;2.05;1.50;;;-1.60;99.90;;;;;;4967228;28;20023;-64
2022/04/08 07:03:23;;;;;;;2.00;1.67;;;-1.70;99.90;;;;;;4958604;28;20134;-65
2022/04/08 07:05:49;;;;;;;2.15;1.55;;;-1.70;99.90;;;;;;4970951;28;20113;-66
2022/04/08 07:08:15;;;;;;;2.97;1.42;;;-1.70;99.90;;;;;;4965618;28;20470;-67
2022/04/08 07:10:41;;;;;;;5.68;1.70;;;-1.80;99.90;;;;;;4965343;28;20027;-71
2022/04/08 07:13:07;;;;;;;4.53;1.80;;;-1.80;99.90;;;;;;4974173;28;20106;-66
2022/04/08 07:15:33;;;;;;;4.22;1.75;;;-1.80;99.90;;;;;;4958522;28;20522;-64
2022/04/08 07:17:59;;;;;;;2.83;1.50;;;-1.90;99.90;;;;;;4969270;28;20058;-64
2022/04/08 07:20:25;;;;;;;1.88;1.63;;;-1.90;99.90;;;;;;4963254;28;20552;-64
2022/04/08 07:22:51;;;;;;;2.78;2.00;;;-1.90;99.90;;;;;;4962741;28;20547;-65
2022/04/08 07:25:17;;;;;;;3.83;1.65;;;-1.80;99.90;;;;;;4969420;28;20031;-63
2022/04/08 07:27:47;;;;;;;2.05;1.35;;;-1.90;99.90;;;;;;4957785;28;20062;-63
2022/04/08 07:30:14;;;;;;;2.03;1.58;;;-1.70;99.90;;;;;;4966418;28;20059;-63
2022/04/08 07:32:40;;;;;;;2.08;1.42;;;-1.70;99.90;;;;;;4964905;28;20023;-63
2022/04/08 07:35:08;;;;;;;3.45;1.70;;;-1.80;99.90;;;;;;4960282;28;20023;-63
2022/04/08 07:37:34;;;;;;;2.17;1.38;;;-1.90;99.90;;;;;;4970044;28;20113;-64
2022/04/08 07:40:00;;;;;;;5.05;1.52;;;-1.90;99.90;;;;;;4958917;28;20537;-63
2022/04/08 07:42:26;;;;;;;2.60;2.10;;;-2.00;99.90;;;;;;4965595;28;20482;-63
2022/04/08 07:44:52;;;;;;;1.95;1.50;;;-2.00;99.90;;;;;;4965678;28;20038;-63
2022/04/08 07:47:20;;;;;;;6.38;1.75;;;-2.00;99.90;;;;;;4958375;28;20031;-63
2022/04/08 07:49:46;;;;;;;4.55;1.30;;;-2.00;99.90;;;;;;4970392;28;20071;-63
2022/04/08 07:52:28;;;;;;;1.35;1.25;;;-2.00;99.90;;;;;;5089402;27;20465;-64
2022/04/08 07:54:55;;;;;;;4.03;1.88;;;-1.90;99.90;;;;;;5089410;28;20577;-64
2022/04/08 07:57:21;;;;;;;3.90;1.35;;;-2.00;99.90;;;;;;5089337;28;20103;-64
2022/04/08 07:59:48;;;;;;;1.98;1.58;;;-2.00;99.90;;;;;;5089392;28;20040;-64
2022/04/08 08:02:14;;;;;;;4.38;1.52;;;-2.00;99.90;;;;;;5089277;28;20055;-64
2022/04/08 08:04:40;;;;;;;3.28;1.90;;;-2.00;99.90;;;;;;5089291;28;20048;-63
2022/04/08 08:07:06;;;;;;;4.20;1.70;;;-2.00;99.90;;;;;;5089060;28;20103;-64
2022/04/08 08:09:33;;;;;;;3.13;1.63;;;-1.90;99.90;;;;;;5089079;28;20035;-64
2022/04/08 08:12:00;;;;;;;3.78;1.50;;;-1.90;99.90;;;;;;5089090;28;20024;-64
2022/04/08 08:14:26;;;;;;;8.57;1.38;;;-1.90;99.90;;;;;;5088927;28;20462;-64
2022/04/08 08:16:51;;;;;;;2.58;1.73;;;-1.80;99.90;;;;;;5089177;28;20060;-63
2022/04/08 08:19:17;;;;;;;3.40;2.00;;;-1.90;99.90;;;;;;5089180;28;20022;-64
2022/04/08 08:21:43;;;;;;;3.53;1.90;;;-2.00;99.90;;;;;;5089298;28;20475;-63
2022/04/08 08:24:09;;;;;;;4.13;2.08;;;-2.00;99.90;;;;;;5088875;28;20027;-63
2022/04/08 08:26:35;;;;;;;1.58;1.33;;;-2.00;99.90;;;;;;5089075;28;20028;-63
2022/04/08 08:29:01;;;;;;;3.65;1.58;;;-2.00;99.90;;;;;;5088963;28;20021;-63
2022/04/08 08:31:26;;;;;;;2.40;1.70;;;-2.10;99.90;;;;;;5088821;28;20047;-63
2022/04/08 08:33:52;;;;;;;1.38;1.27;;;-2.10;99.90;;;;;;5088247;28;20016;-63
2022/04/08 08:36:18;;;;;;;3.40;1.77;;;-2.10;99.90;;;;;;5084189;28;20039;-63
2022/04/08 08:38:44;;;;;;;3.30;1.23;;;-2.20;99.90;;;;;;5067889;28;20120;-64
2022/04/08 08:41:10;;;;;;;4.93;1.33;;;-2.20;99.90;;;;;;5067869;28;20078;-63
2022/04/08 08:43:36;;;;;;;4.13;1.60;;;-2.20;99.90;;;;;;5068019;28;20029;-64
2022/04/08 08:46:06;;;;;;;4.88;1.52;;;-2.20;99.90;;;;;;5067740;28;20057;-63
2022/04/08 08:48:33;;;;;;;2.08;1.40;;;-2.20;99.90;;;;;;5065862;28;20028;-63
2022/04/08 08:51:05;;;;;;;5.68;1.65;;;-2.20;99.90;;;;;;5067442;28;20080;-63
2022/04/08 08:53:32;;;;;;;1.70;1.48;;;-2.20;99.90;;;;;;5064896;28;20024;-63
2022/04/08 08:55:58;;;;;;;1.48;1.25;;;-2.20;99.90;;;;;;5066996;28;20652;-63
2022/04/08 08:58:24;;;;;;;1.85;1.30;;;-2.20;99.90;;;;;;5068042;28;20035;-63
2022/04/08 09:00:50;;;;;;;5.07;1.63;;;-2.10;99.90;;;;;;5068081;28;20455;-63
2022/04/08 09:03:16;;;;;;;4.43;1.42;;;-2.20;99.90;;;;;;5057145;28;20601;-63
2022/04/08 09:05:52;;;;;;;2.88;1.40;;;-2.10;99.90;;;;;;5054734;28;20086;-63
2022/04/08 09:08:18;;;;;;;0.93;0.93;;;-2.10;99.90;;;;;;5054665;28;20028;-63
2022/04/08 09:10:48;;;;;;;1.00;0.90;;;-2.10;99.90;;;;;;5054457;28;20037;-63
2022/04/08 09:13:21;;;;;;;2.42;1.73;;;-2.10;99.90;;;;;;5054453;28;20044;-63
2022/04/08 09:15:55;;;;;;;3.55;1.73;;;-2.10;99.90;;;;;;5054604;28;20037;-63
2022/04/08 09:18:21;;;;;;;2.60;1.70;;;-2.10;99.90;;;;;;5054279;28;20021;-63
2022/04/08 09:20:50;;;;;;;4.00;1.67;;;-2.10;99.90;;;;;;5054474;28;20062;-63
2022/04/08 09:23:21;;;;;;;2.40;1.60;;;-2.10;99.90;;;;;;5054569;28;20388;-63
2022/04/08 09:25:48;;;;;;;3.08;1.52;;;-2.10;99.90;;;;;;5054371;28;20033;-63
2022/04/08 09:28:18;;;;;;;6.72;1.55;;;-2.00;99.90;;;;;;5054132;28;20078;-63
2022/04/08 09:30:58;;;;;;;1.35;1.25;;;-2.00;99.90;;;;;;5054613;28;20376;-63
2022/04/08 09:33:23;;;;;;;1.17;1.07;;;-2.00;99.90;;;;;;5054179;28;20033;-63
2022/04/08 09:35:52;;;;;;;2.45;0.90;;;-1.90;99.90;;;;;;5054167;28;20025;-63
2022/04/08 09:38:25;;;;;;;3.30;1.40;;;-1.90;99.90;;;;;;5052831;28;20541;-63
2022/04/08 09:40:58;;;;;;;2.97;1.52;;;-1.90;99.90;;;;;;5053674;28;20020;-63
2022/04/08 09:43:32;;;;;;;1.70;1.27;;;-1.80;99.90;;;;;;5053450;28;20196;-63
2022/04/08 09:46:18;;;;;;;1.95;1.10;;;-1.80;99.90;;;;;;5053296;28;20118;-63
2022/04/08 09:48:44;;;;;;;1.88;1.50;;;-1.80;99.90;;;;;;5052465;28;20017;-63
2022/04/08 09:51:21;;;;;;;8.88;1.60;;;-1.80;99.90;;;;;;5052805;28;20037;-63
2022/04/08 09:53:55;;;;;;;2.20;1.52;;;-1.70;99.90;;;;;;5053501;28;20029;-63
2022/04/08 09:56:23;;;;;;;3.10;1.13;;;-1.70;99.90;;;;;;5050010;28;20029;-63
2022/04/08 09:59:14;;;;;;;4.93;0.95;;;-1.70;99.90;;;;;;5058382;28;20029;-63
2022/04/08 10:01:44;;;;;;;3.38;1.42;;;-1.60;99.90;;;;;;5057820;28;20017;-64
2022/04/08 10:04:10;;;;;;;2.45;1.50;;;-1.60;99.90;;;;;;5053564;28;20074;-65
2022/04/08 10:06:37;;;;;;;1.52;1.13;;;-1.60;99.90;;;;;;5053556;28;20025;-63
2022/04/08 10:09:10;;;;;;;2.05;1.48;;;-1.50;99.90;;;;;;5053690;28;20036;-65
2022/04/08 10:12:06;;;;;;;1.88;1.30;;;-1.50;99.90;;;;;;5053430;28;20523;-63
2022/04/08 10:14:57;;;;;;;1.35;1.20;;;-1.50;99.90;;;;;;5051975;28;20025;-63
2022/04/08 10:17:23;;;;;;;1.10;1.00;;;-1.50;99.90;;;;;;5053188;28;20029;-63
2022/04/08 10:19:48;;;;;;;1.70;0.95;;;-1.40;99.90;;;;;;5053318;28;20020;-63
2022/04/08 10:22:19;;;;;;;0.98;0.98;;;-1.40;99.90;;;;;;5053059;28;20480;-64
2022/04/08 10:24:55;;;;;;;;;;;-1.40;99.90;;;;;;5053669;28;20035;-63
2022/04/08 10:27:47;;;;;;;1.17;1.10;;;-1.30;99.90;;;;;;5053395;28;19951;-63
2022/04/08 10:30:14;;;;;;;3.42;1.25;;;-1.30;99.90;;;;;;5051643;28;20442;-64
2022/04/08 10:32:40;;;;;;;2.60;1.13;;;-0.50;99.90;;;;;;5053356;28;20025;-65
2022/04/08 10:35:15;;;;;;;2.47;1.15;;;0.00;99.90;;;;;;5052490;28;20100;-65
2022/04/08 10:37:42;;;;;;;1.42;1.10;;;-0.50;99.90;;;;;;5050151;28;20064;-65
2022/04/08 10:40:10;;;;;;;1.02;0.90;;;-0.70;99.90;;;;;;5053243;28;20056;-68
2022/04/08 10:42:36;;;;;;;1.52;1.02;;;-0.80;99.90;;;;;;5053243;28;20031;-67
2022/04/08 10:45:12;;;;;;;0.75;0.75;;;-0.90;99.90;;;;;;5052887;28;20017;-66
2022/04/08 10:47:47;;;;;;;1.30;1.20;;;-0.90;99.90;;;;;;5053628;28;20037;-66
2022/04/08 10:50:24;;;;;;;1.08;1.02;;;-0.90;99.90;;;;;;5052525;28;20025;-66
2022/04/08 10:52:50;;;;;;;1.35;1.20;;;-1.00;99.90;;;;;;5052806;28;20025;-68
2022/04/08 10:55:16;;;;;;;1.48;1.35;;;-0.90;99.90;;;;;;5052467;28;20032;-66
2022/04/08 10:57:43;;;;;;;2.78;1.40;;;-0.90;99.90;;;;;;5052642;28;20412;-66
2022/04/08 11:00:12;;;;;;;4.43;1.30;;;-0.90;99.90;;;;;;5052694;28;20112;-66
2022/04/08 11:02:39;;;;;;;1.95;1.25;;;-0.90;99.90;;;;;;5052553;28;20480;-66
2022/04/08 11:05:10;;;;;;;1.52;1.17;;;-0.80;99.90;;;;;;5052501;28;20167;-66
2022/04/08 11:07:45;;;;;;;1.40;1.05;;;-0.80;99.90;;;;;;5052718;28;20055;-67
2022/04/08 11:10:13;;;;;;;4.38;1.23;;;-0.80;99.90;;;;;;5052307;28;20024;-66
2022/04/08 11:12:49;;;;;;;2.65;1.10;;;-0.70;99.90;;;;;;5052506;28;20468;-67
2022/04/08 11:15:21;;;;;;;0.73;0.73;;;-0.70;99.90;;;;;;5052095;28;20031;-66
2022/04/08 11:17:47;;;;;;;2.63;1.20;;;-0.60;99.90;;;;;;5051872;28;20018;-66
2022/04/08 11:20:15;;;;;;;0.93;0.90;;;-0.60;99.90;;;;;;5051962;28;20037;-71
2022/04/08 11:22:42;;;;;;;4.30;1.20;;;-0.50;99.90;;;;;;5052541;28;20024;-68
2022/04/08 11:25:29;;;;;;;2.90;1.15;;;-0.50;99.90;;;;;;5049974;28;20416;-71
2022/04/08 11:28:06;;;;;;;1.15;0.93;;;-0.40;99.90;;;;;;5047096;28;20017;-71
2022/04/08 11:30:34;;;;;;;1.48;1.38;;;-0.40;99.90;;;;;;5051872;28;20025;-71
2022/04/08 11:33:10;;;;;;;1.05;0.95;;;-0.30;99.90;;;;;;5051984;28;20115;-71
2022/04/08 11:35:38;;;;;;;1.27;1.17;;;-0.30;99.90;;;;;;5051748;28;20070;-68
2022/04/08 11:38:14;;;;;;;2.80;1.30;;;-0.30;99.90;;;;;;5051658;28;20021;-67
2022/04/08 11:40:40;;;;;;;1.42;1.10;;;-0.20;99.90;;;;;;5051155;28;20427;-70
2022/04/08 11:43:06;;;;;;;1.02;0.90;;;-0.20;99.90;;;;;;5053074;28;20021;-70
2022/04/08 11:45:32;;;;;;;1.83;0.88;;;-0.20;99.90;;;;;;5054062;28;20048;-70
2022/04/08 11:47:58;;;;;;;1.10;0.95;;;-0.10;99.90;;;;;;5057043;28;20095;-70
2022/04/08 11:50:26;;;;;;;1.20;1.10;;;-0.10;99.90;;;;;;5070780;28;20052;-70
2022/04/08 11:52:57;;;;;;;3.75;1.08;;;-0.10;99.90;;;;;;5055292;28;20035;-71
2022/04/08 11:55:27;;;;;;;1.40;1.15;;;0.00;99.90;;;;;;5051226;28;20544;-71
2022/04/08 11:57:54;;;;;;;2.38;1.30;;;0.10;99.90;;;;;;5051930;28;20029;-70
2022/04/08 12:00:30;;;;;;;2.40;1.38;;;0.10;99.90;;;;;;5050885;28;20068;-70
2022/04/08 12:02:57;;;;;;;1.40;1.30;;;0.10;99.90;;;;;;5050476;28;20033;-71
2022/04/08 12:05:31;;;;;;;4.18;1.40;;;0.10;99.90;;;;;;5050439;28;20025;-71
2022/04/08 12:07:59;;;;;;;3.47;1.40;;;0.20;99.90;;;;;;5062596;28;20017;-71
2022/04/08 12:10:26;;;;;;;2.55;1.40;;;0.20;99.90;;;;;;5047247;28;20037;-71
2022/04/08 12:12:53;;;;;;;4.95;1.40;;;0.30;99.90;;;;;;5051045;28;20572;-72
2022/04/08 12:15:23;;;;;;;1.65;1.35;;;0.30;99.90;;;;;;5049783;28;20013;-69
2022/04/08 12:17:50;;;;;;;2.80;1.40;;;0.30;99.90;;;;;;5052449;28;20064;-68
2022/04/08 12:20:20;;;;;;;2.92;1.35;;;0.30;99.90;;;;;;5049994;28;20063;-68
2022/04/08 12:22:48;;;;;;;3.58;1.42;;;0.40;99.90;;;;;;5051109;28;20028;-68
2022/04/08 12:25:15;;;;;;;2.45;1.38;;;0.40;99.90;;;;;;5051776;28;20039;-68
2022/04/08 12:27:41;;;;;;;1.58;1.17;;;0.50;99.90;;;;;;5051043;28;20013;-68
2022/04/08 12:30:08;;;;;;;3.03;1.05;;;0.50;99.90;;;;;;5049711;28;20039;-68
2022/04/08 12:32:39;;;;;;;1.15;0.98;;;0.50;99.90;;;;;;5047666;28;20029;-68
2022/04/08 12:35:10;;;;;;;;;;;0.60;99.90;;;;;;5052852;28;20052;-68
2022/04/08 12:37:36;;;;;;;2.85;1.83;;;0.60;99.90;;;;;;5052677;28;19909;-68
2022/04/08 12:40:06;;;;;;;2.03;1.83;;;0.60;99.90;;;;;;5055804;28;20548;-68
2022/04/08 12:42:35;;;;;;;;;;;0.70;99.90;;;;;;5056286;28;20039;-68
2022/04/08 12:45:03;;;;;;;13.50;2.15;;;0.70;99.90;;;;;;5055048;28;19944;-68
2022/04/08 12:47:29;;;;;;;2.55;1.60;;;0.70;99.90;;;;;;5055307;28;20021;-68
2022/04/08 12:49:55;;;;;;;1.40;1.27;;;0.80;99.90;;;;;;5055794;28;20017;-68
2022/04/08 12:52:21;;;;;;;1.35;1.25;;;0.80;99.90;;;;;;5055652;28;20116;-68
2022/04/08 12:54:49;;;;;;;2.00;1.38;;;0.80;99.90;;;;;;5049432;28;20039;-68
2022/04/08 12:57:15;;;;;;;1.52;1.20;;;0.80;99.90;;;;;;5052575;28;20111;-70
2022/04/08 12:59:41;;;;;;;2.53;1.58;;;0.90;99.90;;;;;;5052212;28;20042;-71
2022/04/08 13:02:07;;;;;;;2.20;1.98;;;0.90;99.90;;;;;;5053373;28;20032;-71
2022/04/08 13:04:35;;;;;;;2.08;1.50;;;0.90;99.90;;;;;;5053322;28;20021;-70
2022/04/08 13:07:02;;;;;;;3.38;1.50;;;0.90;99.90;;;;;;5053928;28;20021;-70
2022/04/08 13:09:29;;;;;;;1.98;1.60;;;1.00;99.90;;;;;;5053711;28;20036;-69
2022/04/08 13:11:54;;;;;;;1.70;1.60;;;1.00;99.90;;;;;;5053737;28;20032;-68
2022/04/08 13:14:20;;;;;;;2.00;1.52;;;1.00;99.90;;;;;;5052834;28;20425;-72
2022/04/08 13:16:46;;;;;;;2.35;1.75;;;1.30;99.90;;;;;;5053541;28;20032;-72
2022/04/08 13:19:12;;;;;;;2.05;1.63;;;1.20;99.90;;;;;;5053463;28;20028;-69
2022/04/08 13:21:39;;;;;;;2.30;1.95;;;1.20;99.90;;;;;;5053100;28;20028;-69
2022/04/08 13:24:06;;;;;;;2.00;1.80;;;1.10;99.90;;;;;;5053138;28;20601;-67
2022/04/08 13:26:32;;;;;;;2.78;2.15;;;1.10;99.90;;;;;;5053167;28;20137;-69
2022/04/08 13:28:58;;;;;;;2.35;1.92;;;1.10;99.90;;;;;;5053655;28;20017;-67
2022/04/08 13:31:23;;;;;;;2.42;1.83;;;1.20;99.90;;;;;;5053552;28;20246;-69
2022/04/08 13:33:49;;;;;;;3.47;2.00;;;1.20;99.90;;;;;;5053768;28;20024;-69
2022/04/08 13:36:15;;;;;;;3.45;1.88;;;1.30;99.90;;;;;;5053313;28;20035;-69
2022/04/08 13:38:40;;;;;;;2.17;1.80;;;1.30;99.90;;;;;;5053488;28;20028;-69
2022/04/08 13:41:06;;;;;;;2.40;1.70;;;1.30;99.90;;;;;;5053399;28;20120;-68
2022/04/08 13:43:32;;;;;;;2.25;1.90;;;1.30;99.90;;;;;;5053261;28;20025;-69
2022/04/08 13:45:57;;;;;;;1.63;1.52;;;1.40;99.90;;;;;;5053271;28;20099;-68
2022/04/08 13:48:24;;;;;;;2.05;1.88;;;1.40;99.90;;;;;;5053185;28;20020;-69
2022/04/08 13:50:49;;;;;;;2.05;1.60;;;1.40;99.90;;;;;;5053022;28;20059;-69
2022/04/08 13:53:15;;;;;;;2.15;1.95;;;1.40;99.90;;;;;;5053163;28;20476;-69
2022/04/08 13:55:41;;;;;;;1.85;1.70;;;1.50;99.90;;;;;;5053279;28;20029;-69